^^
Grace C. Lehan Memorial Weather Station Historical Data
Daily Summary for January 12, 2021 Units:  English    Metric   Both
Daily Weekly Monthly Yearly
  High: Low: Average:
Temperature: 72.4 °F 65.1 °F 68.1 °F
Dew Point: 70 °F 63.6 °F 66.4 °F
Humidity: 97% 90% 94%
Wind Speed: 3.3mph 0mph 0.3mph
Wind Gust: 12mph - -
Wind- - SE
Pressure: 30.22 in 30.02 in -
Precipitation: 0.31 in    
 
 
Tabular Data for January 12, 2021
Time Temperature Dew Point Pressure Wind Wind Speed Wind Gust Humidity Rainfall Rate (Hourly) solar
00:09 67.4 °F 64.7 °F 30.08 in Calm   2 mph 91% 0.00 in 0 W/m2
00:14 67.4 °F 64.7 °F 30.08 in Calm   2 mph 91.1% 0.00 in 0 W/m2
00:19 67.4 °F 65 °F 30.08 in NNE 0.1 mph 2 mph 92% 0.00 in 0 W/m2
00:24 67.4 °F 65 °F 30.08 in Calm   2 mph 92% 0.00 in 0 W/m2
00:29 67.3 °F 64.9 °F 30.08 in Calm   2 mph 92% 0.00 in 0 W/m2
00:34 67.3 °F 64.9 °F 30.08 in Calm   2 mph 92% 0.00 in 0 W/m2
00:39 67.3 °F 64.9 °F 30.07 in NNE 0.1 mph 2 mph 92% 0.00 in 0 W/m2
00:44 67.3 °F 64.9 °F 30.07 in Calm   2 mph 92% 0.00 in 0 W/m2
00:49 67.3 °F 64.9 °F 30.07 in NNE 0.1 mph 2 mph 92% 0.00 in 0 W/m2
00:54 67.2 °F 64.8 °F 30.07 in Calm   2 mph 92% 0.00 in 0 W/m2
00:59 67.3 °F 65 °F 30.06 in Calm   2 mph 92.4% 0.00 in 0 W/m2
01:04 67.3 °F 65.2 °F 30.06 in Calm   2 mph 93% 0.00 in 0 W/m2
01:09 67.3 °F 65.1 °F 30.07 in Calm     92.5% 0.00 in 0 W/m2
01:14 67.3 °F 65.2 °F 30.06 in Calm     93% 0.00 in 0 W/m2
01:19 67.3 °F 65.3 °F 30.06 in NE 0.2 mph 4 mph 93% 0.00 in 0 W/m2
01:24 67.3 °F 65.2 °F 30.06 in NE 0.1 mph 4 mph 93% 0.00 in 0 W/m2
01:29 67.3 °F 65.2 °F 30.06 in Calm   4 mph 93% 0.00 in 0 W/m2
01:34 67.3 °F 65.2 °F 30.06 in Calm   4 mph 93% 0.00 in 0 W/m2
01:39 67.3 °F 65.2 °F 30.06 in Calm   1 mph 93% 0.00 in 0 W/m2
01:44 67.2 °F 65.1 °F 30.06 in Calm   1 mph 93% 0.00 in 0 W/m2
01:49 67.2 °F 65.1 °F 30.06 in Calm   1 mph 93% 0.00 in 0 W/m2
01:54 67.2 °F 65.1 °F 30.06 in Calm   1 mph 93% 0.00 in 0 W/m2
01:59 67.2 °F 65.1 °F 30.06 in NE 0.9 mph 4 mph 93% 0.00 in 0 W/m2
02:03 67.2 °F 65.1 °F 30.06 in North 0.7 mph 5 mph 93% 0.00 in 0 W/m2
02:09 67.2 °F 65.1 °F 30.06 in North 0.1 mph 5 mph 93% 0.00 in 0 W/m2
02:14 67.2 °F 65.1 °F 30.06 in North 0.2 mph 5 mph 93% 0.00 in 0 W/m2
02:19 67.2 °F 65.1 °F 30.06 in North 0.2 mph 5 mph 93% 0.00 in 0 W/m2
02:24 67.2 °F 65.1 °F 30.06 in North 0.2 mph 5 mph 93% 0.00 in 0 W/m2
02:29 67.2 °F 65.1 °F 30.06 in North 0.2 mph 5 mph 93% 0.00 in 0 W/m2
02:34 67.1 °F 65 °F 30.06 in Calm   5 mph 93% 0.00 in 0 W/m2
02:39 67 °F 64.9 °F 30.06 in Calm   1 mph 93% 0.00 in 0 W/m2
02:44 67 °F 64.9 °F 30.05 in North 0.1 mph 5 mph 93% 0.00 in 0 W/m2
02:49 66.9 °F 64.8 °F 30.05 in Calm   5 mph 93% 0.00 in 0 W/m2
02:54 66.7 °F 64.7 °F 30.05 in NE 0.2 mph 5 mph 93% 0.02 in 0 W/m2
02:59 66.6 °F 64.8 °F 30.05 in Calm   5 mph 93.8% 0.03 in 0 W/m2
03:04 66.6 °F 64.8 °F 30.05 in NNW 0.5 mph 5 mph 94% 0.05 in 0 W/m2
03:09 66.5 °F 64.7 °F 30.05 in Calm   5 mph 94% 0.07 in 0 W/m2
03:14 66.3 °F 64.5 °F 30.05 in NNE 0.3 mph 5 mph 94% 0.07 in 0 W/m2
03:19 66.1 °F 64.3 °F 30.05 in NNE 0.1 mph 5 mph 94% 0.07 in 0 W/m2
03:24 66 °F 64.2 °F 30.05 in Calm   5 mph 94% 0.08 in 0 W/m2
03:29 65.9 °F 64.1 °F 30.05 in Calm   5 mph 94% 0.09 in 0 W/m2
03:34 65.8 °F 64.1 °F 30.04 in Calm   5 mph 94% 0.10 in 0 W/m2
03:39 65.8 °F 64 °F 30.04 in Calm   1 mph 94% 0.10 in 0 W/m2
03:44 65.7 °F 64 °F 30.04 in Calm   1 mph 94.1% 0.11 in 0 W/m2
03:49 65.7 °F 64.2 °F 30.04 in NNW 0.7 mph 6 mph 95% 0.11 in 0 W/m2
03:54 65.6 °F 64.1 °F 30.04 in Calm   6 mph 95% 0.11 in 0 W/m2
03:59 65.6 °F 64.1 °F 30.04 in Calm   6 mph 95% 0.12 in 0 W/m2
04:00 65.5 °F 64 °F 30.03 in Calm   6 mph 95% 0.12 in 0 W/m2
04:09 65.4 °F 64 °F 30.03 in Calm   3 mph 95% 0.09 in 0 W/m2
04:14 65.4 °F 64 °F 30.04 in NNE 0.2 mph 3 mph 95% 0.09 in 0 W/m2
04:19 65.4 °F 63.9 °F 30.04 in NNE 0.1 mph 3 mph 95% 0.09 in 0 W/m2
04:24 65.3 °F 63.9 °F 30.03 in NW 0.9 mph 4 mph 95% 0.09 in 0 W/m2
04:29 65.2 °F 63.8 °F 30.03 in Calm   4 mph 95% 0.09 in 0 W/m2
04:34 65.2 °F 63.7 °F 30.03 in NW 0.2 mph 4 mph 95% 0.09 in 0 W/m2
04:39 65.1 °F 63.6 °F 30.03 in Calm   3 mph 95% 0.03 in 0 W/m2
04:44 65.1 °F 63.6 °F 30.03 in Calm   3 mph 95% 0.04 in 0 W/m2
04:49 65.1 °F 63.6 °F 30.03 in NW 0.2 mph 3 mph 95% 0.04 in 0 W/m2
04:54 65.1 °F 63.6 °F 30.02 in Calm   3 mph 95% 0.04 in 0 W/m2
04:59 65.1 °F 63.6 °F 30.02 in Calm   3 mph 95% 0.04 in 0 W/m2
05:04 65.1 °F 63.6 °F 30.02 in Calm   3 mph 95% 0.04 in 0 W/m2
05:09 65.1 °F 63.9 °F 30.02 in Calm     96% 0.01 in 0 W/m2
05:14 65.1 °F 64 °F 30.02 in NW 0.7 mph 5 mph 96% 0.01 in 0 W/m2
05:19 65.1 °F 64 °F 30.02 in NW 0.1 mph 5 mph 96% 0.01 in 0 W/m2
05:24 65.1 °F 63.9 °F 30.02 in NW 0.2 mph 5 mph 96% 0.01 in 0 W/m2
05:29 65.1 °F 64 °F 30.03 in NW 0.2 mph 5 mph 96% 0.01 in 0 W/m2
05:34 65.1 °F 63.9 °F 30.03 in Calm   5 mph 96% 0.01 in 0 W/m2
05:39 65.1 °F 64 °F 30.03 in Calm     96% 0.01 in 0 W/m2
05:44 65.2 °F 64 °F 30.03 in Calm   1 mph 96% 0.01 in 0 W/m2
05:49 65.2 °F 64.1 °F 30.03 in Calm   1 mph 96% 0.01 in 0 W/m2
05:54 65.3 °F 64.1 °F 30.03 in Calm   2 mph 96% 0.01 in 7 W/m2
05:59 65.3 °F 64.2 °F 30.03 in Calm   2 mph 96% 0.01 in 7 W/m2
06:04 65.4 °F 64.2 °F 30.04 in NW 0.2 mph 3 mph 96% 0.01 in 7 W/m2
06:09 65.5 °F 64.3 °F 30.04 in NW 0.7 mph 5 mph 96% 0.00 in 7 W/m2
06:14 65.5 °F 64.3 °F 30.05 in NW 0.1 mph 5 mph 96% 0.00 in 9 W/m2
06:19 65.6 °F 64.4 °F 30.05 in NW 0.2 mph 5 mph 96% 0.00 in 14 W/m2
06:24 65.5 °F 64.4 °F 30.05 in NW 0.8 mph 5 mph 96% 0.00 in 18 W/m2
06:29 65.5 °F 64.3 °F 30.05 in NW 0.1 mph 5 mph 96% 0.00 in 16 W/m2
06:34 65.6 °F 64.4 °F 30.05 in Calm   5 mph 96% 0.00 in 14 W/m2
06:39 65.6 °F 64.4 °F 30.06 in Calm     96% 0.00 in 14 W/m2
06:44 65.6 °F 64.4 °F 30.06 in NNW 0.2 mph 3 mph 96% 0.00 in 9 W/m2
06:49 65.6 °F 64.4 °F 30.06 in NNW 0.4 mph 4 mph 96% 0.00 in 9 W/m2
06:54 65.6 °F 64.4 °F 30.07 in North 0.7 mph 4 mph 96% 0.00 in 9 W/m2
06:59 65.6 °F 64.4 °F 30.07 in North 0.5 mph 4 mph 96% 0.00 in 12 W/m2
07:04 65.6 °F 64.4 °F 30.07 in North 0.1 mph 4 mph 96% 0.01 in 18 W/m2
07:09 65.6 °F 64.4 °F 30.07 in Calm   2 mph 96% 0.01 in 18 W/m2
07:14 65.6 °F 64.4 °F 30.07 in North 0.2 mph 4 mph 96% 0.02 in 18 W/m2
07:19 65.5 °F 64.4 °F 30.07 in North 0.4 mph 6 mph 96% 0.02 in 12 W/m2
07:24 65.5 °F 64.3 °F 30.07 in NNW 0.1 mph 6 mph 96% 0.03 in 12 W/m2
07:29 65.5 °F 64.3 °F 30.07 in Calm   6 mph 96% 0.04 in 12 W/m2
07:34 65.4 °F 64.3 °F 30.07 in Calm   6 mph 96% 0.05 in 18 W/m2
07:39 65.4 °F 64.3 °F 30.07 in Calm     96% 0.05 in 19 W/m2
07:44 65.4 °F 64.3 °F 30.08 in NNW 0.2 mph 2 mph 96% 0.05 in 18 W/m2
07:49 65.4 °F 64.2 °F 30.08 in Calm   2 mph 96% 0.06 in 19 W/m2
07:54 65.5 °F 64.3 °F 30.07 in Calm   2 mph 96% 0.06 in 21 W/m2
07:59 65.5 °F 64.3 °F 30.07 in Calm   2 mph 96% 0.06 in 30 W/m2
08:04 65.6 °F 64.4 °F 30.08 in Calm     96% 0.00 in 30 W/m2
08:09 65.7 °F 64.6 °F 30.08 in Calm     96.2% 0.06 in 32 W/m2
08:14 65.8 °F 64.9 °F 30.08 in North 0.2 mph 3 mph 97% 0.06 in 37 W/m2
08:19 65.8 °F 64.9 °F 30.08 in NNE 0.4 mph 5 mph 97% 0.06 in 40 W/m2
08:24 65.8 °F 64.9 °F 30.09 in North 0.3 mph 5 mph 97% 0.06 in 37 W/m2
08:29 65.8 °F 65 °F 30.09 in Calm   5 mph 97% 0.06 in 46 W/m2
08:34 65.8 °F 64.9 °F 30.09 in NNW 0.5 mph 5 mph 97% 0.06 in 40 W/m2
08:39 65.9 °F 65 °F 30.09 in North 0.6 mph 5 mph 97% 0.02 in 30 W/m2
08:44 65.9 °F 65 °F 30.09 in North 0.7 mph 5 mph 97% 0.03 in 39 W/m2
08:49 65.8 °F 64.9 °F 30.08 in NW 0.2 mph 5 mph 97% 0.05 in 39 W/m2
08:54 65.7 °F 64.7 °F 30.09 in Calm   5 mph 96.8% 0.06 in 33 W/m2
08:59 65.5 °F 64.4 °F 30.09 in NE 0.2 mph 5 mph 96% 0.07 in 35 W/m2
09:04 65.5 °F 64.3 °F 30.09 in NE 0.1 mph 5 mph 96% 0.07 in 42 W/m2
09:09 65.6 °F 64.4 °F 30.09 in NW 1.3 mph 10 mph 96% 0.09 in 54 W/m2
09:14 65.6 °F 64.4 °F 30.09 in Calm   10 mph 96% 0.10 in 58 W/m2
09:19 65.7 °F 64.8 °F 30.09 in NNW 0.1 mph 10 mph 97% 0.11 in 62 W/m2
09:24 65.8 °F 64.9 °F 30.09 in North 0.7 mph 10 mph 97% 0.11 in 72 W/m2
09:29 65.9 °F 65 °F 30.09 in Calm   10 mph 97% 0.11 in 84 W/m2
09:34 65.9 °F 65 °F 30.09 in North 0.5 mph 10 mph 97% 0.11 in 88 W/m2
09:39 66 °F 65.2 °F 30.09 in NNW 0.2 mph 4 mph 97% 0.11 in 104 W/m2
09:44 66.1 °F 65.2 °F 30.09 in NNE 0.1 mph 4 mph 97% 0.11 in 104 W/m2
09:49 66.2 °F 65.3 °F 30.09 in North 0.3 mph 5 mph 97% 0.11 in 104 W/m2
09:54 66.3 °F 65.5 °F 30.09 in North 1.1 mph 7 mph 97% 0.11 in 127 W/m2
09:59 66.5 °F 65.6 °F 30.09 in North 0.2 mph 7 mph 97% 0.11 in 146 W/m2
10:04 66.5 °F 65.7 °F 30.09 in North 0.7 mph 7 mph 97% 0.11 in 142 W/m2
10:09 66.7 °F 65.8 °F 30.09 in NNW 0.7 mph 5 mph 97% 0.05 in 160 W/m2
10:14 66.8 °F 65.9 °F 30.09 in North 0.8 mph 5 mph 97% 0.05 in 132 W/m2
10:19 66.8 °F 65.9 °F 30.10 in North 1.4 mph 8 mph 97% 0.05 in 144 W/m2
10:24 66.8 °F 65.9 °F 30.10 in North 1.2 mph 8 mph 97% 0.05 in 121 W/m2
10:29 66.8 °F 65.9 °F 30.10 in NNE 0.3 mph 8 mph 97% 0.05 in 97 W/m2
10:34 66.9 °F 66 °F 30.10 in North 0.1 mph 8 mph 97% 0.05 in 88 W/m2
10:39 67 °F 66.1 °F 30.10 in NNE 1.1 mph 6 mph 97% 0.00 in 93 W/m2
10:44 67 °F 66.1 °F 30.10 in NNE 0.5 mph 6 mph 97% 0.00 in 95 W/m2
10:49 67 °F 66 °F 30.10 in NNW 1.4 mph 9 mph 96.6% 0.00 in 88 W/m2
10:54 66.9 °F 65.7 °F 30.10 in NNW 2 mph 10 mph 96% 0.00 in 90 W/m2
10:59 66.9 °F 65.7 °F 30.10 in North 0.1 mph 10 mph 96% 0.00 in 86 W/m2
11:04 66.9 °F 65.7 °F 30.10 in NNE 1.4 mph 10 mph 96% 0.00 in 97 W/m2
11:09 67 °F 65.8 °F 30.11 in North 0.5 mph 7 mph 96% 0.01 in 118 W/m2
11:14 67.1 °F 66.2 °F 30.11 in NNE 0.1 mph 7 mph 96.9% 0.01 in 128 W/m2
11:19 67.2 °F 66.3 °F 30.11 in NE 0.8 mph 7 mph 97% 0.01 in 144 W/m2
11:24 67.2 °F 66.4 °F 30.11 in NE 0.5 mph 7 mph 97% 0.01 in 149 W/m2
11:29 67.4 °F 66.3 °F 30.11 in NE 0.4 mph 7 mph 96.3% 0.01 in 114 W/m2
11:34 67.4 °F 66.2 °F 30.11 in NE 0.2 mph 7 mph 96% 0.01 in 132 W/m2
11:39 67.4 °F 66.3 °F 30.11 in North 0.3 mph 4 mph 96% 0.01 in 104 W/m2
11:44 67.5 °F 66.3 °F 30.11 in NNW 0.6 mph 5 mph 96% 0.01 in 91 W/m2
11:49 67.6 °F 66.4 °F 30.11 in NW 0.9 mph 6 mph 96% 0.01 in 86 W/m2
11:54 67.6 °F 66.5 °F 30.12 in NW 1.2 mph 6 mph 96% 0.01 in 58 W/m2
11:59 67.7 °F 66.5 °F 30.12 in Calm   6 mph 96% 0.01 in 69 W/m2
12:00 67.7 °F 66.5 °F 30.12 in Calm   6 mph 96% 0.01 in 69 W/m2
12:09 68.2 °F 67 °F 30.12 in NW 0.1 mph 3 mph 96% 0.01 in 142 W/m2
12:14 68.2 °F 67.1 °F 30.12 in NE 0.1 mph 3 mph 96% 0.01 in 160 W/m2
12:19 68.2 °F 67 °F 30.12 in NE 0.5 mph 4 mph 96% 0.01 in 218 W/m2
12:24 68.3 °F 67.1 °F 30.12 in ENE 0.4 mph 4 mph 96% 0.01 in 248 W/m2
12:29 68.5 °F 67.3 °F 30.12 in NE 0.2 mph 5 mph 96% 0.01 in 225 W/m2
12:34 68.8 °F 67.6 °F 30.12 in NE 0.2 mph 5 mph 96% 0.01 in 225 W/m2
12:39 69 °F 67.8 °F 30.12 in NE 0.7 mph 3 mph 96% 0.00 in 144 W/m2
12:44 68.8 °F 67.7 °F 30.12 in NE 0.1 mph 3 mph 96% 0.00 in 134 W/m2
12:49 68.8 °F 67.6 °F 30.13 in Calm   3 mph 96% 0.00 in 149 W/m2
12:54 68.9 °F 67.8 °F 30.12 in Calm   3 mph 96% 0.00 in 160 W/m2
12:59 69 °F 67.8 °F 30.12 in NE 0.1 mph 3 mph 96% 0.00 in 105 W/m2
13:04 69.2 °F 68 °F 30.13 in Calm   3 mph 96% 0.00 in 123 W/m2
13:09 69.3 °F 68 °F 30.13 in NE 0.2 mph 2 mph 95.5% 0.00 in 105 W/m2
13:14 69.5 °F 68 °F 30.13 in Calm   2 mph 95% 0.00 in 128 W/m2
13:19 69.6 °F 68.2 °F 30.13 in Calm   2 mph 95.5% 0.00 in 128 W/m2
13:24 69.5 °F 68.1 °F 30.13 in Calm   2 mph 95% 0.00 in 93 W/m2
13:29 69.6 °F 68.1 °F 30.13 in Calm   2 mph 95% 0.00 in 102 W/m2
13:34 69.7 °F 68.2 °F 30.13 in NE 0.1 mph 3 mph 95% 0.00 in 98 W/m2
13:39 69.6 °F 68.1 °F 30.13 in NE 0.1 mph 3 mph 95% 0.00 in 111 W/m2
13:44 69.8 °F 68.3 °F 30.13 in Calm   3 mph 95% 0.00 in 123 W/m2
13:49 69.9 °F 68.4 °F 30.13 in Calm   3 mph 95% 0.00 in 123 W/m2
13:54 69.9 °F 68.4 °F 30.14 in Calm   3 mph 95% 0.00 in 95 W/m2
13:59 69.9 °F 68.1 °F 30.14 in NE 0.1 mph 3 mph 94.1% 0.00 in 97 W/m2
14:04 69.9 °F 68.1 °F 30.14 in NE 0.3 mph 4 mph 94% 0.00 in 120 W/m2
14:09 70 °F 68.2 °F 30.14 in NE 0.1 mph 4 mph 94% 0.00 in 172 W/m2
14:14 70.3 °F 68.8 °F 30.13 in NE 0.2 mph 4 mph 95% 0.00 in 156 W/m2
14:19 70.5 °F 69 °F 30.14 in NE 0.1 mph 4 mph 95% 0.00 in 132 W/m2
14:24 70.6 °F 68.8 °F 30.14 in NE 0.2 mph 4 mph 94% 0.00 in 125 W/m2
14:29 70.6 °F 68.8 °F 30.14 in Calm   4 mph 94% 0.00 in 134 W/m2
14:34 70.7 °F 68.9 °F 30.14 in Calm   4 mph 94% 0.00 in 97 W/m2
14:39 70.8 °F 69 °F 30.14 in Calm   1 mph 94% 0.00 in 100 W/m2
14:44 70.9 °F 69 °F 30.14 in Calm   1 mph 94% 0.00 in 114 W/m2
14:49 71 °F 69.2 °F 30.14 in Calm   1 mph 94% 0.00 in 118 W/m2
14:54 71.2 °F 69.3 °F 30.14 in Calm   1 mph 93.8% 0.00 in 132 W/m2
14:59 71.2 °F 69 °F 30.14 in Calm   1 mph 93% 0.00 in 118 W/m2
15:04 71 °F 68.9 °F 30.14 in Calm   1 mph 93% 0.00 in 83 W/m2
15:09 71.2 °F 69 °F 30.15 in Calm     93% 0.00 in 53 W/m2
15:14 71.1 °F 69 °F 30.15 in ENE 0.1 mph 2 mph 93% 0.00 in 47 W/m2
15:19 71.1 °F 68.9 °F 30.14 in Calm   2 mph 93% 0.00 in 113 W/m2
15:24 71 °F 68.9 °F 30.14 in Calm   2 mph 93% 0.00 in 130 W/m2
15:29 71.1 °F 69 °F 30.14 in ENE 0.1 mph 2 mph 93% 0.00 in 144 W/m2
15:34 71.3 °F 69.4 °F 30.14 in Calm   2 mph 93.6% 0.00 in 139 W/m2
15:39 71.5 °F 69.7 °F 30.14 in Calm   1 mph 94% 0.00 in 190 W/m2
15:44 71.5 °F 69.7 °F 30.14 in Calm   2 mph 94% 0.00 in 186 W/m2
15:49 71.5 °F 69.5 °F 30.14 in Calm   2 mph 93.5% 0.00 in 178 W/m2
15:54 71.7 °F 69.9 °F 30.14 in ENE 0.1 mph 2 mph 94% 0.00 in 188 W/m2
15:59 71.9 °F 70 °F 30.14 in ENE 0.1 mph 3 mph 93.7% 0.00 in 206 W/m2
16:04 72 °F 69.9 °F 30.14 in Calm     93% 0.00 in 105 W/m2
16:09 72.1 °F 69.9 °F 30.14 in Calm   2 mph 93% 0.00 in 132 W/m2
16:14 72 °F 69.6 °F 30.14 in ENE 0.9 mph 4 mph 92.1% 0.00 in 144 W/m2
16:19 72 °F 69.6 °F 30.14 in ENE 0.5 mph 4 mph 92% 0.00 in 118 W/m2
16:24 72 °F 69.3 °F 30.14 in ENE 0.5 mph 4 mph 91.4% 0.00 in 104 W/m2
16:29 71.9 °F 69.1 °F 30.14 in Calm   4 mph 91% 0.00 in 127 W/m2
16:34 71.9 °F 69.1 °F 30.15 in ENE 0.1 mph 4 mph 91% 0.00 in 120 W/m2
16:39 71.9 °F 69.1 °F 30.15 in ENE 0.4 mph 4 mph 91% 0.00 in 84 W/m2
16:44 71.9 °F 69.2 °F 30.14 in ENE 0.1 mph 4 mph 91% 0.00 in 102 W/m2
16:49 72.1 °F 69.5 °F 30.14 in ENE 0.1 mph 4 mph 91.5% 0.00 in 93 W/m2
16:54 72.2 °F 69.4 °F 30.14 in ENE 0.3 mph 4 mph 91% 0.00 in 135 W/m2
16:59 72.3 °F 69.5 °F 30.14 in ENE 0.7 mph 4 mph 91% 0.00 in 139 W/m2
17:04 72.4 °F 69.6 °F 30.14 in ENE 0.1 mph 4 mph 91% 0.00 in 65 W/m2
17:09 72.4 °F 69.3 °F 30.14 in Calm   1 mph 90% 0.00 in 70 W/m2
17:14 72.4 °F 69.3 °F 30.14 in Calm   1 mph 90% 0.00 in 60 W/m2
17:19 72.4 °F 69.3 °F 30.14 in Calm   1 mph 90% 0.00 in 49 W/m2
17:24 72.4 °F 69.3 °F 30.14 in ENE 1.1 mph 6 mph 90% 0.00 in 28 W/m2
17:29 72.3 °F 69.2 °F 30.15 in ENE 0.1 mph 6 mph 90% 0.00 in 37 W/m2
17:34 72.2 °F 69.1 °F 30.14 in ENE 0.2 mph 6 mph 90% 0.00 in 46 W/m2
17:39 72.1 °F 69.1 °F 30.14 in ENE 0.1 mph 2 mph 90.2% 0.00 in 42 W/m2
17:44 72.1 °F 69.3 °F 30.14 in Calm   2 mph 91% 0.00 in 28 W/m2
17:49 72 °F 69.2 °F 30.15 in ENE 0.3 mph 3 mph 91% 0.00 in 32 W/m2
17:54 71.9 °F 69.2 °F 30.15 in NE 0.8 mph 6 mph 91% 0.00 in 42 W/m2
17:59 71.8 °F 69.1 °F 30.15 in ENE 0.4 mph 6 mph 91% 0.00 in 33 W/m2
18:04 71.8 °F 69 °F 30.15 in NE 3.3 mph 12 mph 91% 0.00 in 33 W/m2
18:09 71.6 °F 68.8 °F 30.16 in NE 2.9 mph 12 mph 91% 0.00 in 28 W/m2
18:14 71.3 °F 68.6 °F 30.16 in ENE 1.9 mph 12 mph 91% 0.00 in 26 W/m2
18:19 71.1 °F 68.6 °F 30.16 in East 0.8 mph 12 mph 91.7% 0.00 in 21 W/m2
18:24 70.9 °F 68.5 °F 30.16 in East 0.1 mph 12 mph 92% 0.00 in 21 W/m2
18:29 70.8 °F 68.6 °F 30.16 in East 0.4 mph 12 mph 92.8% 0.00 in 16 W/m2
18:34 70.7 °F 68.6 °F 30.17 in ENE 1.2 mph 12 mph 93% 0.00 in 11 W/m2
18:39 70.6 °F 68.4 °F 30.17 in NE 2.5 mph 8 mph 93% 0.00 in 18 W/m2
18:44 70.4 °F 68.3 °F 30.18 in ENE 1 mph 8 mph 93% 0.00 in 33 W/m2
18:49 70.3 °F 68.3 °F 30.18 in ENE 0.9 mph 8 mph 93.5% 0.00 in 33 W/m2
18:54 70.2 °F 68.4 °F 30.18 in ENE 1 mph 8 mph 94% 0.00 in 16 W/m2
18:59 70.2 °F 68.4 °F 30.18 in ENE 1.2 mph 8 mph 94% 0.00 in 21 W/m2
19:04 70.2 °F 68.4 °F 30.18 in ENE 0.7 mph 8 mph 94% 0.00 in 21 W/m2
19:09 70.1 °F 68.3 °F 30.18 in ENE 0.7 mph 4 mph 94% 0.00 in 16 W/m2
19:14 70 °F 68.2 °F 30.18 in ENE 0.8 mph 5 mph 94% 0.00 in 16 W/m2
19:19 69.9 °F 68.1 °F 30.18 in ENE 1 mph 5 mph 94% 0.00 in 14 W/m2
19:24 69.8 °F 68 °F 30.18 in ENE 1.2 mph 5 mph 94% 0.00 in 14 W/m2
19:29 69.7 °F 67.9 °F 30.18 in ENE 0.6 mph 5 mph 94% 0.00 in 14 W/m2
19:34 69.6 °F 68 °F 30.18 in ENE 0.8 mph 5 mph 94.5% 0.00 in 16 W/m2
19:39 69.6 °F 68.1 °F 30.18 in ENE 0.6 mph 4 mph 95% 0.00 in 16 W/m2
19:44 69.5 °F 68.1 °F 30.19 in ENE 0.7 mph 5 mph 95% 0.00 in 14 W/m2
19:49 69.5 °F 68 °F 30.19 in Calm   5 mph 95% 0.00 in 9 W/m2
19:54 69.5 °F 68 °F 30.19 in Calm   5 mph 95% 0.00 in 5 W/m2
19:59 69.5 °F 68 °F 30.19 in NE 0.2 mph 5 mph 95% 0.00 in 0 W/m2
20:09 69.3 °F 67.5 °F 30.19 in ENE 0.8 mph 4 mph 94% 0.00 in 0 W/m2
20:14 69.2 °F 67.4 °F 30.19 in ENE 1.9 mph 5 mph 94% 0.00 in 0 W/m2
20:19 69.1 °F 67.4 °F 30.19 in NE 1.8 mph 9 mph 94.4% 0.00 in 0 W/m2
20:24 69 °F 67.5 °F 30.18 in NE 0.2 mph 9 mph 95% 0.00 in 0 W/m2
20:29 69 °F 67.5 °F 30.18 in NE 0.8 mph 9 mph 95% 0.00 in 0 W/m2
20:34 68.9 °F 67.4 °F 30.18 in Calm   9 mph 95% 0.00 in 0 W/m2
20:39 68.9 °F 67.4 °F 30.18 in Calm     95% 0.00 in 0 W/m2
20:44 68.9 °F 67.4 °F 30.19 in Calm     95% 0.00 in 0 W/m2
20:49 68.8 °F 67.3 °F 30.19 in Calm     95% 0.00 in 0 W/m2
20:54 68.8 °F 67.3 °F 30.19 in Calm     95% 0.00 in 0 W/m2
20:59 68.8 °F 67.3 °F 30.19 in Calm     95% 0.00 in 0 W/m2
21:04 68.8 °F 67.3 °F 30.19 in NE 0.2 mph 3 mph 95% 0.00 in 0 W/m2
21:09 68.8 °F 67.3 °F 30.19 in NE 0.2 mph 3 mph 95% 0.00 in 0 W/m2
21:14 68.8 °F 67.3 °F 30.20 in Calm   3 mph 95% 0.00 in 0 W/m2
21:19 68.8 °F 67.3 °F 30.20 in NE 1.4 mph 6 mph 95% 0.00 in 0 W/m2
21:24 68.7 °F 67.2 °F 30.20 in ENE 0.3 mph 6 mph 95% 0.00 in 0 W/m2
21:29 68.7 °F 66.9 °F 30.20 in ENE 0.5 mph 6 mph 94.1% 0.00 in 0 W/m2
21:34 68.6 °F 66.8 °F 30.20 in ENE 0.8 mph 6 mph 94% 0.00 in 0 W/m2
21:39 68.6 °F 66.8 °F 30.21 in East 0.2 mph 4 mph 94% 0.00 in 0 W/m2
21:44 68.6 °F 66.8 °F 30.21 in Calm   4 mph 94% 0.00 in 0 W/m2
21:49 68.7 °F 66.9 °F 30.21 in Calm   4 mph 94% 0.00 in 0 W/m2
21:54 68.7 °F 66.9 °F 30.21 in Calm   4 mph 94% 0.00 in 0 W/m2
21:59 68.7 °F 66.9 °F 30.21 in Calm   4 mph 94% 0.00 in 0 W/m2
22:04 68.7 °F 66.9 °F 30.22 in Calm   4 mph 94% 0.00 in 0 W/m2
22:09 68.7 °F 67 °F 30.22 in Calm     94% 0.00 in 0 W/m2
22:14 68.8 °F 67 °F 30.22 in Calm     94% 0.00 in 0 W/m2
22:19 68.8 °F 67 °F 30.22 in Calm     94% 0.00 in 0 W/m2
22:24 68.8 °F 67 °F 30.22 in Calm     94% 0.00 in 0 W/m2
22:29 68.8 °F 67 °F 30.22 in Calm     94% 0.00 in 0 W/m2
22:34 68.8 °F 67 °F 30.22 in Calm     94% 0.00 in 0 W/m2
22:39 68.7 °F 66.9 °F 30.21 in Calm   1 mph 94% 0.00 in 0 W/m2
22:44 68.7 °F 66.9 °F 30.21 in East 0.2 mph 2 mph 94% 0.00 in 0 W/m2
22:49 68.7 °F 66.7 °F 30.21 in Calm   2 mph 93.2% 0.00 in 0 W/m2
22:54 68.7 °F 66.6 °F 30.22 in Calm   2 mph 93% 0.00 in 0 W/m2
22:59 68.6 °F 66.5 °F 30.22 in Calm   2 mph 93% 0.00 in 0 W/m2
23:04 68.7 °F 66.6 °F 30.21 in Calm   2 mph 93% 0.00 in 0 W/m2
23:09 68.7 °F 66.6 °F 30.22 in Calm     93% 0.00 in 0 W/m2
23:14 68.7 °F 66.6 °F 30.22 in Calm     93% 0.00 in 0 W/m2
23:19 68.7 °F 66.6 °F 30.21 in Calm     93% 0.00 in 0 W/m2
23:24 68.7 °F 66.6 °F 30.21 in Calm     93% 0.00 in 0 W/m2
23:29 68.7 °F 66.6 °F 30.21 in Calm     93% 0.00 in 0 W/m2
23:34 68.7 °F 66.6 °F 30.21 in Calm     93% 0.00 in 0 W/m2
23:39 68.7 °F 66.6 °F 30.21 in Calm     93% 0.00 in 0 W/m2
23:44 68.7 °F 66.8 °F 30.21 in Calm     93.7% 0.00 in 0 W/m2
23:49 68.6 °F 66.8 °F 30.21 in Calm     94% 0.00 in 0 W/m2
23:54 68.6 °F 66.8 °F 30.21 in Calm     94% 0.00 in 0 W/m2
23:59 68.6 °F 66.7 °F 30.21 in Calm     93.5% 0.00 in 0 W/m2
Hartford County Weather
Compliments of Weather Underground - 4 mb